createdAt,value
2018-04-24T00:00:55.243Z,10.50
2018-04-24T00:01:55.234Z,9.10
2018-04-24T00:02:55.213Z,12.50
2018-04-24T00:03:55.200Z,7.80
2018-04-24T00:04:55.181Z,7.30
2018-04-24T00:05:55.198Z,12.40
2018-04-24T00:06:55.165Z,7.40
2018-04-24T00:07:55.133Z,10.10
2018-04-24T00:08:55.120Z,7.20
2018-04-24T00:09:55.109Z,8.80
2018-04-24T00:10:55.085Z,9.50
2018-04-24T00:11:55.069Z,9.00
2018-04-24T00:12:55.067Z,9.40
2018-04-24T00:13:55.038Z,8.90
2018-04-24T00:14:55.019Z,8.60
2018-04-24T00:15:55.006Z,9.20
2018-04-24T00:16:54.988Z,11.90
2018-04-24T00:17:54.970Z,11.00
2018-04-24T00:18:54.953Z,10.70
2018-04-24T00:19:54.943Z,9.10
2018-04-24T00:20:54.927Z,10.80
2018-04-24T00:21:54.908Z,10.80
2018-04-24T00:22:54.890Z,10.90
2018-04-24T00:23:54.877Z,12.10
2018-04-24T00:24:54.857Z,10.10
2018-04-24T00:25:54.839Z,11.60
2018-04-24T00:26:54.828Z,10.80
2018-04-24T00:27:54.808Z,11.90
2018-04-24T00:28:54.791Z,9.80
2018-04-24T00:29:54.786Z,11.30
2018-04-24T00:30:54.762Z,10.90
2018-04-24T00:31:54.747Z,11.40
2018-04-24T00:32:54.791Z,9.20
2018-04-24T00:33:54.711Z,11.40
2018-04-24T00:34:54.696Z,13.00
2018-04-24T00:35:54.686Z,12.30
2018-04-24T00:36:54.662Z,8.90
2018-04-24T00:37:54.647Z,11.40
2018-04-24T00:38:54.629Z,10.30
2018-04-24T00:39:54.618Z,13.00
2018-04-24T00:40:54.599Z,12.60
2018-04-24T00:41:54.580Z,9.80
2018-04-24T00:42:54.574Z,9.80
2018-04-24T00:43:54.558Z,9.70
2018-04-24T00:44:54.530Z,9.60
2018-04-24T00:45:54.541Z,10.90
2018-04-24T00:46:54.512Z,9.90
2018-04-24T00:47:54.486Z,11.80
2018-04-24T00:48:54.604Z,13.00
2018-04-24T00:49:54.448Z,11.10
2018-04-24T00:50:54.435Z,11.80
2018-04-24T00:51:54.470Z,15.80
2018-04-24T00:52:54.398Z,12.10
2018-04-24T00:53:54.385Z,11.20
2018-04-24T00:54:54.369Z,10.90
2018-04-24T00:55:54.350Z,12.70
2018-04-24T00:56:54.331Z,12.30
2018-04-24T00:57:54.314Z,12.40
2018-04-24T00:58:54.297Z,13.50
2018-04-24T00:59:54.283Z,11.70
2018-04-24T01:00:54.274Z,10.40
2018-04-24T01:01:54.250Z,13.50
2018-04-24T01:02:54.234Z,13.50
2018-04-24T01:03:54.217Z,14.40
2018-04-24T01:04:54.196Z,12.00
2018-04-24T01:05:54.203Z,14.70
2018-04-24T01:06:54.167Z,14.70
2018-04-24T01:07:54.147Z,14.90
2018-04-24T01:08:54.138Z,14.10
2018-04-24T01:09:54.118Z,15.20
2018-04-24T01:10:54.097Z,13.30
2018-04-24T01:11:54.082Z,13.70
2018-04-24T01:12:54.063Z,14.80
2018-04-24T01:13:54.048Z,12.10
2018-04-24T01:14:54.033Z,13.70
2018-04-24T01:15:54.107Z,12.00
2018-04-24T01:16:53.997Z,12.00
2018-04-24T01:17:53.983Z,13.00
2018-04-24T01:18:54.066Z,13.30
2018-04-24T01:19:53.946Z,13.80
2018-04-24T01:20:53.933Z,11.70
2018-04-24T01:21:53.914Z,11.90
2018-04-24T01:22:53.896Z,11.90
2018-04-24T01:23:53.884Z,11.00
2018-04-24T01:24:53.864Z,12.70
2018-04-24T01:25:53.847Z,12.50
2018-04-24T01:26:53.832Z,11.00
2018-04-24T01:27:53.813Z,15.00
2018-04-24T01:28:53.796Z,9.60
2018-04-24T01:29:53.781Z,13.00
2018-04-24T01:30:53.767Z,12.00
2018-04-24T01:31:53.747Z,13.00
2018-04-24T01:32:53.731Z,12.30
2018-04-24T01:33:53.712Z,12.90
2018-04-24T01:34:53.706Z,13.40
2018-04-24T01:35:53.680Z,9.70
2018-04-24T01:36:53.661Z,14.00
2018-04-24T01:37:53.662Z,10.40
2018-04-24T01:38:53.634Z,14.60
2018-04-24T01:39:53.611Z,15.40
2018-04-24T01:40:53.594Z,14.50
2018-04-24T01:41:53.580Z,14.00
2018-04-24T01:42:53.566Z,13.40
2018-04-24T01:43:53.543Z,13.20
2018-04-24T01:44:53.525Z,14.20
2018-04-24T01:45:53.509Z,12.20
2018-04-24T01:46:53.493Z,10.80
2018-04-24T01:47:53.475Z,12.10
2018-04-24T01:48:53.459Z,13.30
2018-04-24T01:49:53.450Z,11.40
2018-04-24T01:50:53.423Z,17.40
2018-04-24T01:51:53.407Z,12.20
2018-04-24T01:52:53.388Z,14.00
2018-04-24T01:53:53.398Z,11.40
2018-04-24T01:54:53.357Z,11.30
2018-04-24T01:55:53.339Z,13.80
2018-04-24T01:56:53.330Z,12.70
2018-04-24T01:57:53.304Z,13.00
2018-04-24T01:58:53.315Z,13.30
2018-04-24T01:59:53.271Z,14.80
2018-04-24T02:00:53.251Z,11.20
2018-04-24T02:01:53.285Z,12.00
2018-04-24T02:02:53.222Z,13.30
2018-04-24T02:03:53.203Z,12.50
2018-04-24T02:04:53.290Z,13.10
2018-04-24T02:05:53.177Z,14.60
2018-04-24T02:06:53.153Z,11.20
2018-04-24T02:07:53.159Z,13.20
2018-04-24T02:08:53.141Z,13.80
2018-04-24T02:09:53.100Z,17.00
2018-04-24T02:10:53.083Z,13.60
2018-04-24T02:11:53.067Z,16.80
2018-04-24T02:12:53.048Z,14.50
2018-04-24T02:13:53.033Z,15.60
2018-04-24T02:14:53.017Z,13.30
2018-04-24T02:15:52.998Z,13.80
2018-04-24T02:16:52.986Z,13.10
2018-04-24T02:17:52.967Z,11.60
2018-04-24T02:18:52.946Z,13.90
2018-04-24T02:19:52.931Z,15.40
2018-04-24T02:20:52.914Z,16.10
2018-04-24T02:21:52.898Z,15.30
2018-04-24T02:22:52.879Z,15.50
2018-04-24T02:23:52.881Z,15.90
2018-04-24T02:24:52.850Z,13.80
2018-04-24T02:25:52.827Z,16.00
2018-04-24T02:26:52.814Z,14.60
2018-04-24T02:27:52.795Z,16.20
2018-04-24T02:28:52.773Z,18.00
2018-04-24T02:29:52.756Z,16.50
2018-04-24T02:30:52.740Z,14.40
2018-04-24T02:31:52.734Z,15.90
2018-04-24T02:32:52.706Z,14.90
2018-04-24T02:33:52.706Z,13.70
2018-04-24T02:34:52.678Z,16.20
2018-04-24T02:35:52.659Z,16.80
2018-04-24T02:36:52.665Z,13.60
2018-04-24T02:37:52.618Z,13.00
2018-04-24T02:38:52.602Z,14.50
2018-04-24T02:39:52.586Z,12.70
2018-04-24T02:40:52.582Z,14.10
2018-04-24T02:41:52.553Z,12.30
2018-04-24T02:42:52.613Z,15.00
2018-04-24T02:43:52.515Z,14.50
2018-04-24T02:44:52.498Z,12.30
2018-04-24T02:45:52.482Z,12.20
2018-04-24T02:46:52.467Z,9.80
2018-04-24T02:47:52.457Z,10.60
2018-04-24T02:48:52.427Z,15.00
2018-04-24T02:49:52.415Z,12.80
2018-04-24T02:50:52.401Z,11.10
2018-04-24T02:51:52.376Z,14.20
2018-04-24T02:52:52.362Z,10.00
2018-04-24T02:53:52.349Z,10.30
2018-04-24T02:54:52.324Z,12.70
2018-04-24T02:55:52.312Z,13.20
2018-04-24T02:56:52.292Z,10.50
2018-04-24T02:57:52.272Z,9.80
2018-04-24T02:58:52.253Z,11.70
2018-04-24T02:59:52.245Z,13.00
2018-04-24T03:00:52.221Z,10.50
2018-04-24T03:01:52.205Z,11.40
2018-04-24T03:02:52.184Z,10.10
2018-04-24T03:03:52.170Z,10.30
2018-04-24T03:04:52.165Z,12.20
2018-04-24T03:05:52.132Z,10.50
2018-04-24T03:06:52.115Z,11.00
2018-04-24T03:07:52.102Z,9.50
2018-04-24T03:08:52.080Z,11.00
2018-04-24T03:09:52.094Z,8.10
2018-04-24T03:10:52.043Z,9.60
2018-04-24T03:11:52.097Z,8.40
2018-04-24T03:12:52.041Z,14.50
2018-04-24T03:13:51.990Z,8.60
2018-04-24T03:14:51.975Z,11.40
2018-04-24T03:15:51.958Z,10.50
2018-04-24T03:16:51.937Z,6.50
2018-04-24T03:17:51.920Z,10.40
2018-04-24T03:18:51.902Z,10.50
2018-04-24T03:19:51.888Z,9.80
2018-04-24T03:20:51.872Z,9.30
2018-04-24T03:21:51.849Z,9.50
2018-04-24T03:22:51.833Z,10.80
2018-04-24T03:23:51.815Z,10.20
2018-04-24T03:24:51.805Z,9.50
2018-04-24T03:25:51.781Z,10.60
2018-04-24T03:26:51.763Z,12.70
2018-04-24T03:27:51.749Z,9.90
2018-04-24T03:28:51.777Z,13.80
2018-04-24T03:29:51.712Z,11.90
2018-04-24T03:30:51.692Z,9.90
2018-04-24T03:31:51.688Z,7.70
2018-04-24T03:32:51.659Z,9.20
2018-04-24T03:33:51.647Z,8.20
2018-04-24T03:34:51.630Z,8.00
2018-04-24T03:35:51.607Z,8.70
2018-04-24T03:36:51.618Z,10.30
2018-04-24T03:37:51.570Z,8.70
2018-04-24T03:38:51.553Z,11.40
2018-04-24T03:39:51.550Z,11.70
2018-04-24T03:40:51.516Z,8.20
2018-04-24T03:41:51.495Z,9.70
2018-04-24T03:42:51.489Z,6.70
2018-04-24T03:43:51.460Z,12.70
2018-04-24T03:44:51.451Z,9.30
2018-04-24T03:45:51.446Z,9.10
2018-04-24T03:46:51.407Z,10.90
2018-04-24T03:47:51.390Z,8.00
2018-04-24T03:48:51.370Z,14.50
2018-04-24T03:49:51.354Z,9.30
2018-04-24T03:50:51.338Z,9.60
2018-04-24T03:51:51.328Z,7.60
2018-04-24T03:52:51.299Z,7.30
2018-04-24T03:53:51.282Z,7.30
2018-04-24T03:54:51.265Z,7.30
2018-04-24T03:55:51.261Z,7.40
2018-04-24T03:56:51.229Z,7.40
2018-04-24T03:57:51.214Z,8.60
2018-04-24T03:58:51.201Z,10.50
2018-04-24T03:59:51.176Z,6.40
2018-04-24T04:00:51.167Z,9.50
2018-04-24T04:01:51.145Z,7.10
2018-04-24T04:02:51.123Z,10.30
2018-04-24T04:03:51.104Z,11.60
2018-04-24T04:04:51.085Z,9.00
2018-04-24T04:05:51.076Z,13.10
2018-04-24T04:06:51.053Z,8.90
2018-04-24T04:07:51.044Z,11.70
2018-04-24T04:08:51.021Z,7.30
2018-04-24T04:09:50.998Z,6.60
2018-04-24T04:10:50.983Z,10.00
2018-04-24T04:11:51.103Z,10.40
2018-04-24T04:12:50.945Z,11.60
2018-04-24T04:13:50.929Z,8.70
2018-04-24T04:14:51.012Z,9.80
2018-04-24T04:15:50.977Z,10.50
2018-04-24T04:16:50.873Z,11.80
2018-04-24T04:17:50.856Z,10.90
2018-04-24T04:18:50.838Z,10.00
2018-04-24T04:19:50.822Z,9.70
2018-04-24T04:20:50.806Z,9.20
2018-04-24T04:21:50.787Z,7.90
2018-04-24T04:22:50.765Z,10.20
2018-04-24T04:23:50.752Z,10.00
2018-04-24T04:24:50.732Z,11.00
2018-04-24T04:25:50.713Z,9.80
2018-04-24T04:26:50.704Z,13.60
2018-04-24T04:27:50.755Z,9.40
2018-04-24T04:28:50.660Z,9.50
2018-04-24T04:29:50.653Z,9.90
2018-04-24T04:30:50.648Z,9.30
2018-04-24T04:31:50.609Z,10.40
2018-04-24T04:32:50.617Z,8.10
2018-04-24T04:33:50.581Z,7.00
2018-04-24T04:34:50.557Z,10.40
2018-04-24T04:35:50.540Z,10.90
2018-04-24T04:36:50.520Z,9.60
2018-04-24T04:37:50.503Z,11.70
2018-04-24T04:38:50.490Z,11.70
2018-04-24T04:39:50.469Z,8.90
2018-04-24T04:40:50.450Z,10.80
2018-04-24T04:41:50.434Z,11.20
2018-04-24T04:42:50.414Z,10.90
2018-04-24T04:43:50.398Z,8.70
2018-04-24T04:44:50.379Z,11.30
2018-04-24T04:45:50.370Z,9.50
2018-04-24T04:46:50.344Z,10.70
2018-04-24T04:47:50.353Z,8.30
2018-04-24T04:48:50.309Z,11.30
2018-04-24T04:49:50.300Z,8.60
2018-04-24T04:50:50.275Z,11.60
2018-04-24T04:51:50.268Z,8.60
2018-04-24T04:52:50.238Z,10.80
2018-04-24T04:53:50.220Z,12.10
2018-04-24T04:54:50.266Z,10.20
2018-04-24T04:55:50.187Z,10.10
2018-04-24T04:56:50.168Z,10.20
2018-04-24T04:57:50.154Z,9.90
2018-04-24T04:58:50.132Z,10.50
2018-04-24T04:59:50.119Z,9.00
2018-04-24T05:00:50.097Z,8.60
2018-04-24T05:01:50.080Z,16.00
2018-04-24T05:02:50.062Z,8.60
2018-04-24T05:03:50.047Z,9.50
2018-04-24T05:04:50.043Z,9.20
2018-04-24T05:05:50.017Z,11.70
2018-04-24T05:06:49.998Z,10.40
2018-04-24T05:07:49.986Z,9.10
2018-04-24T05:08:49.961Z,9.40
2018-04-24T05:09:49.943Z,8.50
2018-04-24T05:10:49.934Z,12.90
2018-04-24T05:11:49.917Z,9.60
2018-04-24T05:12:49.889Z,9.90
2018-04-24T05:13:49.885Z,9.50
2018-04-24T05:14:49.856Z,15.80
2018-04-24T05:15:49.839Z,11.10
2018-04-24T05:16:49.829Z,8.90
2018-04-24T05:17:49.806Z,8.70
2018-04-24T05:18:49.786Z,10.50
2018-04-24T05:19:49.766Z,9.90
2018-04-24T05:20:49.750Z,8.60
2018-04-24T05:21:49.744Z,9.40
2018-04-24T05:22:49.715Z,9.10
2018-04-24T05:23:49.701Z,10.50
2018-04-24T05:24:49.682Z,9.00
2018-04-24T05:25:49.664Z,7.90
2018-04-24T05:26:49.648Z,10.20
2018-04-24T05:27:49.629Z,13.20
2018-04-24T05:28:49.619Z,9.70
2018-04-24T05:29:49.605Z,10.70
2018-04-24T05:30:49.577Z,11.90
2018-04-24T05:31:49.559Z,14.00
2018-04-24T05:32:49.594Z,8.30
2018-04-24T05:33:49.533Z,12.40
2018-04-24T05:34:49.509Z,9.80
2018-04-24T05:35:49.518Z,8.60
2018-04-24T05:36:49.475Z,10.40
2018-04-24T05:37:49.474Z,11.40
2018-04-24T05:38:49.460Z,12.90
2018-04-24T05:39:49.427Z,8.50
2018-04-24T05:40:49.460Z,9.60
2018-04-24T05:41:49.387Z,7.10
2018-04-24T05:42:49.391Z,11.90
2018-04-24T05:43:49.363Z,12.70
2018-04-24T05:44:49.336Z,10.20
2018-04-24T05:45:49.316Z,7.30
2018-04-24T05:46:49.303Z,8.70
2018-04-24T05:47:49.285Z,9.90
2018-04-24T05:48:49.268Z,8.60
2018-04-24T05:49:49.253Z,11.10
2018-04-24T05:50:49.234Z,9.90
2018-04-24T05:51:49.216Z,11.30
2018-04-24T05:52:49.198Z,9.50
2018-04-24T05:53:49.181Z,11.60
2018-04-24T05:54:49.163Z,14.50
2018-04-24T05:55:49.151Z,13.20
2018-04-24T05:56:49.206Z,11.20
2018-04-24T05:57:49.182Z,12.20
2018-04-24T05:58:49.096Z,14.50
2018-04-24T05:59:49.089Z,12.60
2018-04-24T06:00:49.060Z,6.80
2018-04-24T06:01:49.043Z,10.10
2018-04-24T06:02:49.030Z,10.50
2018-04-24T06:03:49.020Z,9.60
2018-04-24T06:04:49.000Z,11.10
2018-04-24T06:05:48.980Z,8.50
2018-04-24T06:06:48.959Z,9.00
2018-04-24T06:07:48.941Z,11.70
2018-04-24T06:08:48.924Z,10.00
2018-04-24T06:09:48.909Z,7.90
2018-04-24T06:10:48.892Z,9.70
2018-04-24T06:11:48.874Z,11.00
2018-04-24T06:12:48.893Z,8.50
2018-04-24T06:13:48.841Z,8.00
2018-04-24T06:14:48.823Z,8.50
2018-04-24T06:15:48.911Z,8.60
2018-04-24T06:16:48.791Z,7.10
2018-04-24T06:17:48.773Z,11.30
2018-04-24T06:18:48.757Z,8.30
2018-04-24T06:19:48.745Z,9.90
2018-04-24T06:20:48.724Z,8.30
2018-04-24T06:21:48.711Z,8.60
2018-04-24T06:22:48.694Z,10.20
2018-04-24T06:23:48.673Z,15.40
2018-04-24T06:24:48.658Z,10.30
2018-04-24T06:25:48.639Z,9.30
2018-04-24T06:26:48.622Z,7.40
2018-04-24T06:27:48.607Z,8.00
2018-04-24T06:28:48.593Z,7.20
2018-04-24T06:29:48.572Z,8.10
2018-04-24T06:30:48.566Z,12.00
2018-04-24T06:31:48.545Z,9.80
2018-04-24T06:32:48.531Z,9.10
2018-04-24T06:33:48.504Z,10.30
2018-04-24T06:34:48.487Z,9.90
2018-04-24T06:35:48.472Z,8.50
2018-04-24T06:36:48.479Z,13.00
2018-04-24T06:37:48.436Z,12.90
2018-04-24T06:38:48.443Z,9.50
2018-04-24T06:39:48.405Z,9.40
2018-04-24T06:40:48.389Z,11.40
2018-04-24T06:41:48.367Z,10.40
2018-04-24T06:42:48.356Z,11.00
2018-04-24T06:43:48.338Z,12.10
2018-04-24T06:44:48.328Z,10.80
2018-04-24T06:45:48.308Z,12.10
2018-04-24T06:46:48.287Z,9.10
2018-04-24T06:47:48.282Z,10.20
2018-04-24T06:48:48.254Z,11.30
2018-04-24T06:49:48.239Z,8.70
2018-04-24T06:50:48.220Z,8.70
2018-04-24T06:51:48.215Z,9.60
2018-04-24T06:52:48.334Z,11.20
2018-04-24T06:53:48.178Z,15.40
2018-04-24T06:54:48.159Z,10.90
2018-04-24T06:55:48.194Z,11.80
2018-04-24T06:56:48.121Z,8.00
2018-04-24T06:57:48.104Z,11.80
2018-04-24T06:58:48.095Z,13.50
2018-04-24T06:59:48.074Z,10.40
2018-04-24T07:00:48.140Z,12.00
2018-04-24T07:01:48.037Z,9.90
2018-04-24T07:02:48.042Z,11.30
2018-04-24T07:03:48.008Z,12.90
2018-04-24T07:04:47.987Z,13.30
2018-04-24T07:05:47.974Z,10.90
2018-04-24T07:06:47.954Z,12.50
2018-04-24T07:07:47.937Z,10.90
2018-04-24T07:08:47.920Z,12.80
2018-04-24T07:09:47.909Z,12.40
2018-04-24T07:10:47.893Z,12.50
2018-04-24T07:11:47.893Z,15.00
2018-04-24T07:12:47.864Z,10.40
2018-04-24T07:13:47.848Z,12.90
2018-04-24T07:14:47.825Z,12.60
2018-04-24T07:15:47.806Z,13.80
2018-04-24T07:16:47.841Z,11.20
2018-04-24T07:17:47.773Z,12.00
2018-04-24T07:18:47.755Z,13.40
2018-04-24T07:19:47.744Z,13.90
2018-04-24T07:20:47.724Z,12.60
2018-04-24T07:21:47.709Z,8.90
2018-04-24T07:22:47.693Z,12.10
2018-04-24T07:23:47.675Z,12.70
2018-04-24T07:24:47.787Z,13.90
2018-04-24T07:25:47.642Z,12.00
2018-04-24T07:26:47.624Z,13.20
2018-04-24T07:27:47.681Z,13.40
2018-04-24T07:28:47.596Z,11.60
2018-04-24T07:29:47.588Z,14.10
2018-04-24T07:30:47.562Z,13.60
2018-04-24T07:31:47.549Z,13.50
2018-04-24T07:32:47.586Z,12.50
2018-04-24T07:33:47.512Z,11.90
2018-04-24T07:34:47.504Z,13.40
2018-04-24T07:35:47.484Z,11.20
2018-04-24T07:36:47.464Z,11.80
2018-04-24T07:37:47.457Z,11.90
2018-04-24T07:38:47.441Z,13.30
2018-04-24T07:39:47.420Z,8.60
2018-04-24T07:40:47.467Z,22.70
2018-04-24T07:41:47.384Z,15.30
2018-04-24T07:42:47.369Z,11.70
2018-04-24T07:43:47.444Z,16.70
2018-04-24T07:44:47.338Z,12.60
2018-04-24T07:45:47.320Z,13.50
2018-04-24T07:46:47.376Z,13.00
2018-04-24T07:47:47.290Z,13.20
2018-04-24T07:48:47.442Z,13.40
2018-04-24T07:49:47.267Z,14.00
2018-04-24T07:50:47.240Z,12.80
2018-04-24T07:51:47.237Z,14.20
2018-04-24T07:52:47.210Z,15.70
2018-04-24T07:53:47.192Z,13.80
2018-04-24T07:54:47.179Z,12.80
2018-04-24T07:55:47.164Z,11.10
2018-04-24T07:56:47.155Z,15.50
2018-04-24T07:57:47.134Z,15.90
2018-04-24T07:58:47.117Z,12.10
2018-04-24T07:59:47.101Z,14.50
2018-04-24T08:00:47.084Z,16.00
2018-04-24T08:01:47.077Z,10.70
2018-04-24T08:02:47.058Z,13.00
2018-04-24T08:03:47.037Z,9.80
2018-04-24T08:04:47.024Z,14.60
2018-04-24T08:05:47.006Z,14.20
2018-04-24T08:06:46.991Z,14.10
2018-04-24T08:07:47.071Z,12.60
2018-04-24T08:08:46.963Z,13.10
2018-04-24T08:09:46.945Z,13.10
2018-04-24T08:10:46.929Z,12.70
2018-04-24T08:11:46.918Z,12.00
2018-04-24T08:12:46.897Z,14.70
2018-04-24T08:13:46.893Z,15.60
2018-04-24T08:14:46.865Z,13.70
2018-04-24T08:15:46.862Z,12.70
2018-04-24T08:16:46.850Z,16.20
2018-04-24T08:17:46.827Z,13.50
2018-04-24T08:18:46.806Z,12.70
2018-04-24T08:19:46.797Z,15.10
2018-04-24T08:20:46.777Z,12.90
2018-04-24T08:21:46.760Z,13.30
2018-04-24T08:22:46.829Z,14.20
2018-04-24T08:23:46.822Z,14.00
2018-04-24T08:24:46.716Z,14.70
2018-04-24T08:25:46.694Z,15.90
2018-04-24T08:26:46.734Z,15.40
2018-04-24T08:27:46.685Z,12.50
2018-04-24T08:28:46.659Z,15.00
2018-04-24T08:29:46.633Z,13.40
2018-04-24T08:30:46.616Z,12.20
2018-04-24T08:31:46.603Z,14.20
2018-04-24T08:32:46.584Z,16.70
2018-04-24T08:33:46.704Z,14.20
2018-04-24T08:34:46.555Z,17.50
2018-04-24T08:35:46.538Z,11.50
2018-04-24T08:36:46.528Z,14.50
2018-04-24T08:37:46.511Z,16.80
2018-04-24T08:38:46.498Z,12.30
2018-04-24T08:39:46.593Z,14.30
2018-04-24T08:40:46.467Z,11.10
2018-04-24T08:41:46.443Z,13.60
2018-04-24T08:42:46.431Z,11.50
2018-04-24T08:43:46.414Z,16.00
2018-04-24T08:44:46.397Z,20.20
2018-04-24T08:45:46.391Z,14.90
2018-04-24T08:46:46.374Z,13.00
2018-04-24T08:47:46.439Z,13.50
2018-04-24T08:48:46.337Z,15.90
2018-04-24T08:49:46.321Z,15.00
2018-04-24T08:50:46.305Z,17.80
2018-04-24T08:51:46.294Z,12.70
2018-04-24T08:52:46.283Z,15.70
2018-04-24T08:53:46.262Z,12.80
2018-04-24T08:54:46.250Z,12.70
2018-04-24T08:55:46.225Z,15.80
2018-04-24T08:56:46.209Z,14.30
2018-04-24T08:57:46.205Z,16.00
2018-04-24T08:58:46.193Z,15.20
2018-04-24T08:59:46.168Z,12.80
2018-04-24T09:00:46.161Z,12.90
2018-04-24T09:01:46.140Z,16.20
2018-04-24T09:02:46.119Z,12.70
2018-04-24T09:03:46.185Z,14.30
2018-04-24T09:04:46.128Z,11.90
2018-04-24T09:05:46.070Z,12.60
2018-04-24T09:06:46.104Z,58.00
2018-04-24T09:07:46.042Z,16.10
2018-04-24T09:08:46.039Z,13.60
2018-04-24T09:09:46.011Z,15.00
2018-04-24T09:10:45.999Z,14.20
2018-04-24T09:11:45.991Z,13.10
2018-04-24T09:12:45.993Z,14.60
2018-04-24T09:13:45.967Z,16.30
2018-04-24T09:14:45.937Z,12.70
2018-04-24T09:15:45.923Z,14.40
2018-04-24T09:16:45.907Z,14.10
2018-04-24T09:17:45.932Z,13.00
2018-04-24T09:18:45.878Z,12.70
2018-04-24T09:19:45.874Z,15.80
2018-04-24T09:20:45.857Z,11.70
2018-04-24T09:21:45.837Z,13.70
2018-04-24T09:22:45.851Z,14.00
2018-04-24T09:23:45.816Z,15.30
2018-04-24T09:24:45.788Z,16.40
2018-04-24T09:25:45.775Z,15.40
2018-04-24T09:26:45.764Z,11.50
2018-04-24T09:27:45.748Z,14.30
2018-04-24T09:28:45.729Z,15.70
2018-04-24T09:29:45.713Z,16.30
2018-04-24T09:30:45.716Z,14.00
2018-04-24T09:31:45.695Z,16.00
2018-04-24T09:32:45.672Z,14.80
2018-04-24T09:33:45.659Z,16.20
2018-04-24T09:34:45.644Z,15.00
2018-04-24T09:35:45.628Z,14.80
2018-04-24T09:36:45.612Z,13.20
2018-04-24T09:37:45.597Z,18.00
2018-04-24T09:38:45.591Z,14.30
2018-04-24T09:39:45.572Z,13.50
2018-04-24T09:40:45.555Z,13.60
2018-04-24T09:41:45.555Z,13.00
2018-04-24T09:42:45.527Z,11.30
2018-04-24T09:43:45.515Z,13.60
2018-04-24T09:44:45.514Z,11.70
2018-04-24T09:45:45.489Z,16.20
2018-04-24T09:46:45.483Z,15.30
2018-04-24T09:47:45.468Z,16.00
2018-04-24T09:48:45.477Z,14.10
2018-04-24T09:49:45.449Z,10.40
2018-04-24T09:50:45.420Z,14.50
2018-04-24T09:51:45.405Z,13.10
2018-04-24T09:52:45.397Z,13.80
2018-04-24T09:53:45.381Z,13.20
2018-04-24T09:54:45.363Z,12.10
2018-04-24T09:55:45.351Z,10.80
2018-04-24T09:56:45.373Z,10.90
2018-04-24T09:57:45.325Z,14.90
2018-04-24T09:58:45.310Z,14.90
2018-04-24T09:59:45.306Z,15.00
2018-04-24T10:00:45.284Z,14.30
2018-04-24T10:01:45.265Z,10.70
2018-04-24T10:02:45.271Z,16.10
2018-04-24T10:03:45.249Z,16.20
2018-04-24T10:04:45.224Z,16.20
2018-04-24T10:05:45.226Z,13.10
2018-04-24T10:06:45.199Z,14.20
2018-04-24T10:07:45.266Z,11.00
2018-04-24T10:08:45.172Z,15.10
2018-04-24T10:09:45.154Z,11.90
2018-04-24T10:10:45.148Z,14.30
2018-04-24T10:11:45.130Z,14.10
2018-04-24T10:12:45.112Z,15.80
2018-04-24T10:13:45.132Z,15.80
2018-04-24T10:14:45.099Z,15.20
2018-04-24T10:15:45.098Z,14.20
2018-04-24T10:16:45.060Z,14.20
2018-04-24T10:17:45.045Z,13.30
2018-04-24T10:18:45.045Z,13.30
2018-04-24T10:19:45.105Z,14.40
2018-04-24T10:20:45.000Z,14.70
2018-04-24T10:21:45.003Z,12.10
2018-04-24T10:22:44.991Z,15.50
2018-04-24T10:23:44.962Z,15.00
2018-04-24T10:24:44.949Z,15.30
2018-04-24T10:25:44.932Z,14.40
2018-04-24T10:26:44.927Z,13.80
2018-04-24T10:27:44.909Z,12.40
2018-04-24T10:28:44.890Z,12.30
2018-04-24T10:29:44.892Z,15.10
2018-04-24T10:30:44.863Z,17.50
2018-04-24T10:31:44.853Z,19.80
2018-04-24T10:32:44.836Z,16.10
2018-04-24T10:33:44.823Z,18.60
2018-04-24T10:34:44.813Z,17.30
2018-04-24T10:35:44.797Z,28.10
2018-04-24T10:36:44.779Z,17.50
2018-04-24T10:37:44.774Z,13.20
2018-04-24T10:38:44.753Z,15.60
2018-04-24T10:39:44.738Z,12.00
2018-04-24T10:40:44.733Z,14.80
2018-04-24T10:41:44.716Z,15.40
2018-04-24T10:42:44.696Z,14.60
2018-04-24T10:43:44.757Z,16.70
2018-04-24T10:44:44.670Z,12.00
2018-04-24T10:45:44.703Z,13.30
2018-04-24T10:46:44.645Z,14.30
2018-04-24T10:47:44.627Z,15.80
2018-04-24T10:48:44.625Z,15.50
2018-04-24T10:49:44.601Z,15.60
2018-04-24T10:50:44.590Z,11.50
2018-04-24T10:51:44.620Z,15.40
2018-04-24T10:52:44.560Z,18.30
2018-04-24T10:53:44.558Z,14.80
2018-04-24T10:54:44.536Z,12.90
2018-04-24T10:55:44.527Z,18.80
2018-04-24T10:56:44.506Z,15.00
2018-04-24T10:57:44.496Z,20.30
2018-04-24T10:58:44.478Z,16.60
2018-04-24T10:59:44.476Z,17.50
2018-04-24T11:00:44.469Z,15.80
2018-04-24T11:01:44.439Z,14.90
2018-04-24T11:02:44.425Z,15.90
2018-04-24T11:03:44.418Z,14.20
2018-04-24T11:04:44.559Z,21.40
2018-04-24T11:05:44.383Z,16.90
2018-04-24T11:06:44.467Z,18.90
2018-04-24T11:07:44.361Z,18.70
2018-04-24T11:08:44.354Z,16.30
2018-04-24T11:09:44.340Z,19.60
2018-04-24T11:10:44.326Z,20.30
2018-04-24T11:11:44.308Z,17.20
2018-04-24T11:12:44.294Z,18.30
2018-04-24T11:13:44.305Z,20.10
2018-04-24T11:14:44.269Z,16.60
2018-04-24T11:15:44.257Z,15.60
2018-04-24T11:16:44.245Z,16.40
2018-04-24T11:17:44.249Z,18.80
2018-04-24T11:18:44.217Z,19.40
2018-04-24T11:19:44.207Z,22.50
2018-04-24T11:20:44.298Z,19.50
2018-04-24T11:21:44.180Z,18.10
2018-04-24T11:22:44.280Z,18.80
2018-04-24T11:23:44.176Z,18.80
2018-04-24T11:24:44.148Z,19.60
2018-04-24T11:25:44.170Z,20.40
2018-04-24T11:26:44.180Z,18.40
2018-04-24T11:27:44.115Z,20.50
2018-04-24T11:28:44.095Z,20.30
2018-04-24T11:29:44.084Z,21.00
2018-04-24T11:30:44.078Z,22.20
2018-04-24T11:31:44.065Z,17.50
2018-04-24T11:32:44.051Z,21.40
2018-04-24T11:33:44.034Z,21.30
2018-04-24T11:34:44.027Z,17.50
2018-04-24T11:35:44.012Z,21.40
2018-04-24T11:36:44.076Z,25.40
2018-04-24T11:37:43.985Z,21.90
2018-04-24T11:38:43.983Z,20.50
2018-04-24T11:39:43.961Z,22.30
2018-04-24T11:40:43.953Z,19.20
2018-04-24T11:41:43.947Z,20.40
2018-04-24T11:42:43.923Z,21.60
2018-04-24T11:43:43.913Z,24.10
2018-04-24T11:44:43.900Z,18.80
2018-04-24T11:45:43.894Z,21.10
2018-04-24T11:46:43.875Z,21.00
2018-04-24T11:47:43.864Z,17.80
2018-04-24T11:48:43.858Z,21.90
2018-04-24T11:49:43.930Z,21.30
2018-04-24T11:50:43.826Z,21.80
2018-04-24T11:51:43.992Z,22.20
2018-04-24T11:52:43.800Z,25.00
2018-04-24T11:53:43.790Z,23.00
2018-04-24T11:54:43.890Z,23.00
2018-04-24T11:55:43.765Z,25.60
2018-04-24T11:56:43.762Z,28.20
2018-04-24T11:57:43.765Z,22.70
2018-04-24T11:58:43.721Z,28.60
2018-04-24T11:59:43.714Z,25.00
2018-04-24T12:00:43.701Z,26.80
2018-04-24T12:01:43.699Z,22.80
2018-04-24T12:02:43.686Z,26.10
2018-04-24T12:03:43.666Z,24.30
2018-04-24T12:04:43.650Z,29.20
2018-04-24T12:05:43.633Z,28.90
2018-04-24T12:06:43.622Z,27.70
2018-04-24T12:07:43.625Z,29.10
2018-04-24T12:08:43.598Z,24.20
2018-04-24T12:09:43.593Z,26.30
2018-04-24T12:10:43.618Z,27.30
2018-04-24T12:11:43.569Z,24.10
2018-04-24T12:12:43.540Z,21.50
2018-04-24T12:13:43.535Z,24.80
2018-04-24T12:14:43.517Z,26.10
2018-04-24T12:15:43.542Z,26.60
2018-04-24T12:16:43.488Z,29.70
2018-04-24T12:17:43.476Z,25.60
2018-04-24T12:18:43.463Z,23.20
2018-04-24T12:19:43.449Z,21.90
2018-04-24T12:20:43.435Z,23.30
2018-04-24T12:21:43.426Z,21.30
2018-04-24T12:22:43.410Z,27.00
2018-04-24T12:23:43.437Z,21.80
2018-04-24T12:24:43.385Z,20.70
2018-04-24T12:25:43.368Z,23.00
2018-04-24T12:26:43.426Z,26.00
2018-04-24T12:27:43.344Z,27.70
2018-04-24T12:28:43.337Z,30.10
2018-04-24T12:29:43.316Z,29.60
2018-04-24T12:30:43.304Z,34.10
2018-04-24T12:31:43.301Z,32.60
2018-04-24T12:32:43.279Z,31.20
2018-04-24T12:33:43.276Z,33.20
2018-04-24T12:34:43.254Z,26.90
2018-04-24T12:35:43.245Z,29.70
2018-04-24T12:36:43.227Z,30.10
2018-04-24T12:37:43.214Z,33.00
2018-04-24T12:38:43.259Z,31.70
2018-04-24T12:39:43.199Z,30.30
2018-04-24T12:40:43.176Z,29.80
2018-04-24T12:41:43.164Z,30.40
2018-04-24T12:42:43.157Z,29.10
2018-04-24T12:43:43.139Z,25.20
2018-04-24T12:44:43.124Z,27.50
2018-04-24T12:45:43.117Z,26.00
2018-04-24T12:46:43.099Z,22.60
2018-04-24T12:47:43.191Z,23.70
2018-04-24T12:48:43.073Z,21.70
2018-04-24T12:49:43.066Z,20.70
2018-04-24T12:50:43.047Z,19.30
2018-04-24T12:51:43.073Z,23.10
2018-04-24T12:52:43.022Z,20.30
2018-04-24T12:53:43.016Z,20.20
2018-04-24T12:54:42.995Z,22.80
2018-04-24T12:55:42.991Z,18.50
2018-04-24T12:56:42.975Z,22.60
2018-04-24T12:57:42.992Z,20.50